Time;durP1;ratioP1;P1;durP2;ratioP2;P2;SDS_P1;SDS_P2;PMS_P1;PMS_P2;Temp;Humidity;BMP_temperature;BMP_pressure;BME280_temperature;BME280_humidity;BME280_pressure;Samples;Min_cycle;Max_cycle;Signal;HPM_P1;HPM_P2
2023/08/20 00:01:58;;;;;;;3.75;3.55;;;20.40;99.90;;;;;;4182615;28;20107;-81
2023/08/20 00:04:19;;;;;;;3.70;3.58;;;20.20;99.90;;;;;;4179942;28;20044;-81
2023/08/20 00:06:39;;;;;;;3.50;2.75;;;20.20;99.90;;;;;;4178431;28;20103;-81
2023/08/20 00:09:00;;;;;;;3.60;3.30;;;20.20;99.90;;;;;;4181578;28;20044;-81
2023/08/20 00:11:20;;;;;;;5.70;3.13;;;20.30;99.90;;;;;;4181016;28;20048;-81
2023/08/20 00:13:41;;;;;;;3.78;3.58;;;20.50;99.90;;;;;;4182734;28;20091;-81
2023/08/20 00:16:01;;;;;;;2.63;2.53;;;20.30;99.90;;;;;;4178229;28;20247;-81
2023/08/20 00:18:22;;;;;;;3.17;3.08;;;20.30;99.90;;;;;;4183083;28;20075;-81
2023/08/20 00:20:45;;;;;;;2.60;2.40;;;20.50;99.90;;;;;;4196036;28;20751;-81
2023/08/20 00:23:05;;;;;;;3.95;3.75;;;20.40;99.90;;;;;;4183665;28;20072;-81
2023/08/20 00:25:25;;;;;;;4.03;3.72;;;20.20;99.90;;;;;;4176829;28;20103;-81
2023/08/20 00:27:45;;;;;;;3.90;3.80;;;20.20;99.90;;;;;;4195031;28;20112;-82
2023/08/20 00:30:08;;;;;;;4.10;3.28;;;20.10;99.90;;;;;;4183390;28;20072;-81
2023/08/20 00:32:28;;;;;;;3.55;2.92;;;20.10;99.90;;;;;;4185489;28;20075;-79
2023/08/20 00:34:48;;;;;;;4.10;3.90;;;20.00;99.90;;;;;;4180943;28;20066;-79
2023/08/20 00:37:08;;;;;;;3.25;3.05;;;20.10;99.90;;;;;;4181947;28;20064;-79
2023/08/20 00:39:29;;;;;;;3.17;3.03;;;20.00;99.90;;;;;;4177011;28;20068;-79
2023/08/20 00:41:49;;;;;;;3.00;2.90;;;20.10;99.90;;;;;;4185517;28;20075;-79
2023/08/20 00:44:09;;;;;;;3.40;3.20;;;20.20;99.90;;;;;;4185166;28;20126;-80
2023/08/20 00:46:30;;;;;;;3.70;3.50;;;20.20;99.90;;;;;;4184992;28;20113;-81
2023/08/20 00:48:50;;;;;;;3.63;3.40;;;20.20;99.90;;;;;;4178232;28;20083;-80
2023/08/20 00:51:10;;;;;;;3.75;2.97;;;20.20;99.90;;;;;;4178605;28;20047;-80
2023/08/20 00:53:30;;;;;;;3.00;2.90;;;20.10;99.90;;;;;;4182916;28;20390;-80
2023/08/20 00:55:50;;;;;;;4.40;3.17;;;20.20;99.90;;;;;;4180622;28;20111;-80
2023/08/20 00:58:11;;;;;;;3.20;3.10;;;20.10;99.90;;;;;;4181229;28;20395;-80
2023/08/20 01:00:31;;;;;;;3.63;3.22;;;20.10;99.90;;;;;;4173884;28;20088;-80
2023/08/20 01:02:51;;;;;;;3.30;3.00;;;20.00;99.90;;;;;;4178311;28;20084;-80
2023/08/20 01:05:12;;;;;;;3.35;3.15;;;20.00;99.90;;;;;;4182607;28;20083;-80
2023/08/20 01:07:53;;;;;;;3.03;2.83;;;20.00;99.90;;;;;;4181539;28;20049;-80
2023/08/20 01:10:48;;;;;;;3.28;3.08;;;20.00;99.90;;;;;;4183299;28;20041;-80
2023/08/20 01:13:09;;;;;;;2.20;2.08;;;20.00;99.90;;;;;;4180765;28;20102;-80
2023/08/20 01:15:29;;;;;;;2.67;2.58;;;20.00;99.90;;;;;;4181010;28;20087;-80
2023/08/20 01:17:50;;;;;;;2.90;2.65;;;19.90;99.90;;;;;;4177829;28;20056;-80
2023/08/20 01:20:11;;;;;;;1.90;1.90;;;20.00;99.90;;;;;;4180564;28;20060;-80
2023/08/20 01:23:08;;;;;;;3.15;2.75;;;20.00;99.90;;;;;;4183076;28;20079;-80
2023/08/20 01:25:43;;;;;;;2.75;2.65;;;20.00;99.90;;;;;;4183135;28;20041;-80
2023/08/20 01:28:05;;;;;;;2.70;2.65;;;20.00;99.90;;;;;;4194093;28;20156;-80
2023/08/20 01:30:26;;;;;;;2.83;2.65;;;20.00;99.90;;;;;;4191035;28;20048;-80
2023/08/20 01:32:50;;;;;;;3.13;2.92;;;19.90;99.90;;;;;;4180076;28;20091;-80
2023/08/20 01:35:13;;;;;;;3.33;3.05;;;19.90;99.90;;;;;;4174257;28;20089;-80
2023/08/20 01:37:33;;;;;;;3.80;3.50;;;19.80;99.90;;;;;;4180079;28;20075;-80
2023/08/20 01:39:54;;;;;;;3.42;3.17;;;19.80;99.90;;;;;;4177302;28;20055;-80
2023/08/20 01:42:13;;;;;;;2.95;2.85;;;19.60;99.90;;;;;;4183897;28;20040;-80
2023/08/20 01:44:33;;;;;;;2.70;2.50;;;19.60;99.90;;;;;;4187975;28;20122;-80
2023/08/20 01:46:53;;;;;;;4.93;3.30;;;19.60;99.90;;;;;;4182230;28;20070;-80
2023/08/20 01:49:13;;;;;;;2.60;2.50;;;19.80;99.90;;;;;;4178068;28;20119;-80
2023/08/20 01:51:33;;;;;;;3.47;3.38;;;19.90;99.90;;;;;;4179809;28;20109;-80
2023/08/20 01:53:54;;;;;;;3.25;3.05;;;19.80;99.90;;;;;;4179180;28;20063;-83
2023/08/20 01:56:13;;;;;;;3.58;3.33;;;19.80;99.90;;;;;;4178945;28;20124;-83
2023/08/20 01:58:34;;;;;;;3.75;2.90;;;19.70;99.90;;;;;;4179120;28;20063;-83
2023/08/20 02:00:54;;;;;;;2.03;1.92;;;19.70;99.90;;;;;;4178828;28;20064;-83
2023/08/20 02:03:14;;;;;;;2.40;2.30;;;19.70;99.90;;;;;;4178950;28;20067;-83
2023/08/20 02:05:34;;;;;;;2.65;2.50;;;19.40;99.90;;;;;;4182799;28;20112;-83
2023/08/20 02:07:54;;;;;;;1.70;1.70;;;19.30;99.90;;;;;;4189296;28;20092;-83
2023/08/20 02:10:14;;;;;;;2.17;2.00;;;19.50;99.90;;;;;;4179817;28;20056;-84
2023/08/20 02:12:35;;;;;;;2.28;2.08;;;19.60;99.90;;;;;;4179104;28;20052;-83
2023/08/20 02:14:55;;;;;;;2.67;1.88;;;19.60;99.90;;;;;;4181278;28;20043;-83
2023/08/20 02:17:15;;;;;;;1.48;1.48;;;19.60;99.90;;;;;;4181689;28;20044;-83
2023/08/20 02:19:36;;;;;;;2.30;2.20;;;19.60;99.90;;;;;;4178737;28;20051;-83
2023/08/20 02:21:56;;;;;;;2.53;2.42;;;19.50;99.90;;;;;;4182488;28;20147;-83
2023/08/20 02:24:16;;;;;;;2.17;2.08;;;19.40;99.90;;;;;;4185050;28;20047;-83
2023/08/20 02:26:37;;;;;;;3.25;2.95;;;19.30;99.90;;;;;;4183631;28;20044;-83
2023/08/20 02:28:57;;;;;;;3.78;3.42;;;19.30;99.90;;;;;;4181238;28;20455;-83
2023/08/20 02:31:17;;;;;;;3.67;3.58;;;19.40;99.90;;;;;;4182237;28;20390;-84
2023/08/20 02:33:37;;;;;;;3.50;3.20;;;19.40;99.90;;;;;;4181357;28;20073;-82
2023/08/20 02:36:02;;;;;;;2.80;2.60;;;19.30;99.90;;;;;;4184617;28;20083;-83
2023/08/20 02:38:22;;;;;;;1.90;1.80;;;19.10;99.90;;;;;;4183310;28;20112;-83
2023/08/20 02:40:42;;;;;;;2.75;2.50;;;19.10;99.90;;;;;;4187004;28;20389;-83
2023/08/20 02:43:02;;;;;;;2.65;2.58;;;19.10;99.90;;;;;;4178791;28;20044;-83
2023/08/20 02:45:22;;;;;;;2.78;2.58;;;19.10;99.90;;;;;;4179080;28;20053;-83
2023/08/20 02:47:42;;;;;;;2.42;2.42;;;19.10;99.90;;;;;;4180389;28;20248;-83
2023/08/20 02:50:03;;;;;;;2.05;1.90;;;19.00;99.90;;;;;;4181683;28;20055;-83
2023/08/20 02:52:23;;;;;;;2.35;2.25;;;19.10;99.90;;;;;;4182392;28;20112;-83
2023/08/20 02:54:44;;;;;;;5.75;2.50;;;19.10;99.90;;;;;;4179591;28;20102;-79
2023/08/20 02:57:04;;;;;;;2.38;2.08;;;19.00;99.90;;;;;;4178544;28;20232;-79
2023/08/20 02:59:25;;;;;;;2.35;2.25;;;19.00;99.90;;;;;;4182095;28;20046;-78
2023/08/20 03:01:45;;;;;;;2.78;2.35;;;19.00;99.90;;;;;;4178223;28;20058;-79
2023/08/20 03:04:05;;;;;;;2.40;2.30;;;19.00;99.90;;;;;;4179326;28;20040;-81
2023/08/20 03:06:25;;;;;;;2.60;2.50;;;19.00;99.90;;;;;;4181245;28;20048;-81
2023/08/20 03:08:46;;;;;;;2.17;2.00;;;19.00;99.90;;;;;;4175344;28;20076;-81
2023/08/20 03:11:06;;;;;;;2.20;2.10;;;19.10;99.90;;;;;;4179971;28;20107;-81
2023/08/20 03:13:26;;;;;;;1.83;1.83;;;19.20;99.90;;;;;;4184947;28;20053;-81
2023/08/20 03:15:46;;;;;;;2.67;2.58;;;19.30;99.90;;;;;;4178659;28;20104;-81
2023/08/20 03:18:07;;;;;;;2.38;2.28;;;19.20;99.90;;;;;;4175430;28;20052;-81
2023/08/20 03:20:28;;;;;;;1.90;1.88;;;19.20;99.90;;;;;;4179325;28;20059;-81
2023/08/20 03:22:48;;;;;;;2.03;1.92;;;19.10;99.90;;;;;;4182988;28;20044;-81
2023/08/20 03:25:09;;;;;;;1.83;1.80;;;19.00;99.90;;;;;;4180782;28;20048;-81
2023/08/20 03:27:29;;;;;;;2.65;2.55;;;18.90;99.90;;;;;;4186951;28;20091;-81
2023/08/20 03:29:49;;;;;;;2.80;1.90;;;18.80;99.90;;;;;;4178669;28;20278;-81
2023/08/20 03:32:09;;;;;;;1.95;1.83;;;18.80;99.90;;;;;;4176896;28;20048;-81
2023/08/20 03:34:29;;;;;;;2.05;1.95;;;18.90;99.90;;;;;;4182748;28;20048;-81
2023/08/20 03:36:50;;;;;;;2.55;2.55;;;19.00;99.90;;;;;;4167576;28;20043;-81
2023/08/20 03:39:10;;;;;;;2.42;2.33;;;19.00;99.90;;;;;;4179873;28;20405;-81
2023/08/20 03:41:30;;;;;;;1.70;1.70;;;19.10;99.90;;;;;;4184332;28;20075;-81
2023/08/20 03:43:50;;;;;;;2.15;2.13;;;19.10;99.90;;;;;;4174534;28;20056;-81
2023/08/20 03:46:10;;;;;;;3.83;2.20;;;18.90;99.90;;;;;;4178689;28;20248;-81
2023/08/20 03:48:30;;;;;;;1.65;1.65;;;19.00;99.90;;;;;;4181726;28;20127;-81
2023/08/20 03:50:50;;;;;;;2.20;2.10;;;19.00;99.90;;;;;;4184826;28;20054;-81
2023/08/20 03:53:10;;;;;;;1.83;1.73;;;19.00;99.90;;;;;;4174024;28;20087;-81
2023/08/20 03:55:31;;;;;;;1.95;1.85;;;18.90;99.90;;;;;;4184884;28;20109;-81
2023/08/20 03:57:50;;;;;;;2.22;2.22;;;18.90;99.90;;;;;;4182552;28;20051;-81
2023/08/20 04:00:12;;;;;;;1.85;1.75;;;18.80;99.90;;;;;;4173727;28;20044;-81
2023/08/20 04:02:32;;;;;;;1.95;1.95;;;18.80;99.90;;;;;;4172684;28;20060;-81
2023/08/20 04:04:52;;;;;;;2.70;2.63;;;18.80;99.90;;;;;;4181479;28;20077;-81
2023/08/20 04:07:12;;;;;;;2.90;2.40;;;18.80;99.90;;;;;;4177520;28;20044;-81
2023/08/20 04:09:36;;;;;;;1.85;1.85;;;18.80;99.90;;;;;;4177559;28;20248;-81
2023/08/20 04:11:56;;;;;;;2.58;1.98;;;18.80;99.90;;;;;;4179733;28;20040;-81
2023/08/20 04:14:16;;;;;;;2.38;2.20;;;18.70;99.90;;;;;;4178037;28;20075;-83
2023/08/20 04:16:36;;;;;;;2.30;2.20;;;18.70;99.90;;;;;;4181414;28;20229;-83
2023/08/20 04:18:56;;;;;;;2.38;2.17;;;18.70;99.90;;;;;;4177816;28;20115;-83
2023/08/20 04:21:16;;;;;;;1.98;1.98;;;18.70;99.90;;;;;;4181750;28;20048;-83
2023/08/20 04:23:36;;;;;;;3.08;2.88;;;18.70;99.90;;;;;;4179843;28;20052;-83
2023/08/20 04:25:56;;;;;;;2.30;2.20;;;18.70;99.90;;;;;;4178767;28;20387;-83
2023/08/20 04:28:16;;;;;;;2.40;2.30;;;18.70;99.90;;;;;;4176674;28;20045;-83
2023/08/20 04:30:36;;;;;;;1.80;1.80;;;18.60;99.90;;;;;;4180220;28;20079;-83
2023/08/20 04:32:56;;;;;;;1.98;1.92;;;18.50;99.90;;;;;;4180109;28;20047;-83
2023/08/20 04:35:16;;;;;;;2.72;2.53;;;18.60;99.90;;;;;;4182072;28;20233;-83
2023/08/20 04:37:36;;;;;;;2.05;2.05;;;18.60;99.90;;;;;;4175680;28;20100;-83
2023/08/20 04:39:56;;;;;;;2.75;2.55;;;18.60;99.90;;;;;;4185194;28;20125;-83
2023/08/20 04:42:16;;;;;;;2.85;2.65;;;18.60;99.90;;;;;;4177887;28;20140;-83
2023/08/20 04:44:36;;;;;;;2.17;2.17;;;18.70;99.90;;;;;;4180045;28;20068;-83
2023/08/20 04:46:56;;;;;;;2.20;2.10;;;18.80;99.90;;;;;;4180812;28;20040;-83
2023/08/20 04:49:16;;;;;;;2.28;2.25;;;18.80;99.90;;;;;;4181505;28;20044;-84
2023/08/20 04:51:36;;;;;;;2.55;1.67;;;18.80;99.90;;;;;;4175504;28;20048;-82
2023/08/20 04:53:56;;;;;;;2.50;2.17;;;18.70;99.90;;;;;;4178948;28;20740;-83
2023/08/20 04:56:16;;;;;;;3.13;2.92;;;18.70;99.90;;;;;;4175869;28;20068;-83
2023/08/20 04:58:36;;;;;;;2.88;2.78;;;18.70;99.90;;;;;;4177889;28;20052;-83
2023/08/20 05:00:56;;;;;;;2.67;2.58;;;18.70;99.90;;;;;;4181683;28;20040;-83
2023/08/20 05:03:17;;;;;;;2.60;2.50;;;18.70;99.90;;;;;;4180997;28;20045;-83
2023/08/20 05:05:37;;;;;;;3.03;2.80;;;18.70;99.90;;;;;;4179221;28;20044;-85
2023/08/20 05:07:57;;;;;;;2.90;2.80;;;18.80;99.90;;;;;;4186850;28;20048;-84
2023/08/20 05:10:17;;;;;;;2.78;2.58;;;18.80;99.90;;;;;;4180934;28;20049;-84
2023/08/20 05:12:37;;;;;;;2.20;2.20;;;18.70;99.90;;;;;;4179690;28;20087;-84
2023/08/20 05:14:58;;;;;;;2.65;2.45;;;18.80;99.90;;;;;;4182831;28;20136;-81
2023/08/20 05:17:18;;;;;;;2.22;2.13;;;18.70;99.90;;;;;;4181965;28;20048;-81
2023/08/20 05:19:38;;;;;;;3.75;3.42;;;18.70;99.90;;;;;;4177554;28;20103;-81
2023/08/20 05:21:59;;;;;;;2.28;2.17;;;18.60;99.90;;;;;;4181577;28;20111;-81
2023/08/20 05:24:19;;;;;;;3.08;2.90;;;18.60;99.90;;;;;;4187422;28;20450;-81
2023/08/20 05:26:39;;;;;;;2.28;2.28;;;18.80;99.90;;;;;;4180718;28;20068;-81
2023/08/20 05:29:00;;;;;;;2.28;2.17;;;18.80;99.90;;;;;;4181261;28;20048;-81
2023/08/20 05:31:20;;;;;;;2.78;2.67;;;18.90;99.90;;;;;;4184691;28;20060;-81
2023/08/20 05:33:40;;;;;;;2.13;2.03;;;19.00;99.90;;;;;;4184757;28;20052;-80
2023/08/20 05:36:00;;;;;;;2.30;2.30;;;19.20;99.90;;;;;;4186656;28;20103;-80
2023/08/20 05:38:20;;;;;;;2.47;2.35;;;19.20;99.90;;;;;;4176044;28;20120;-81
2023/08/20 05:40:40;;;;;;;2.28;2.17;;;19.30;99.90;;;;;;4179651;28;20060;-81
2023/08/20 05:43:00;;;;;;;2.08;1.88;;;19.30;99.90;;;;;;4187936;28;20075;-81
2023/08/20 05:45:20;;;;;;;2.92;2.72;;;19.30;99.90;;;;;;4182257;28;20053;-81
2023/08/20 05:47:40;;;;;;;2.50;2.30;;;19.30;99.90;;;;;;4179670;28;20068;-80
2023/08/20 05:50:00;;;;;;;2.60;2.50;;;19.40;99.90;;;;;;4180254;28;20099;-81
2023/08/20 05:52:20;;;;;;;2.25;2.25;;;19.40;99.90;;;;;;4180952;28;20079;-80
2023/08/20 05:54:40;;;;;;;3.88;2.80;;;19.50;99.90;;;;;;4183820;28;20061;-83
2023/08/20 05:57:01;;;;;;;2.40;2.38;;;19.70;99.90;;;;;;4182395;28;20087;-83
2023/08/20 05:59:22;;;;;;;2.20;2.13;;;19.90;99.90;;;;;;4186945;28;20252;-83
2023/08/20 06:01:43;;;;;;;2.55;2.45;;;20.10;99.90;;;;;;4181775;28;20044;-83
2023/08/20 06:04:03;;;;;;;6.13;2.55;;;20.20;99.90;;;;;;4185354;28;20232;-83
2023/08/20 06:06:23;;;;;;;2.65;2.28;;;20.30;99.90;;;;;;4182713;28;20043;-83
2023/08/20 06:08:43;;;;;;;2.15;2.15;;;20.40;99.90;;;;;;4182330;28;20052;-83
2023/08/20 06:11:20;;;;;;;2.78;2.78;;;20.50;99.90;;;;;;4179209;28;20039;-83
2023/08/20 06:13:41;;;;;;;2.25;2.03;;;20.70;99.90;;;;;;4180661;28;20071;-83
2023/08/20 06:16:02;;;;;;;2.83;2.58;;;20.90;99.90;;;;;;4181797;28;20067;-83
2023/08/20 06:18:22;;;;;;;2.10;2.00;;;21.00;99.90;;;;;;4179816;28;20292;-83
2023/08/20 06:20:42;;;;;;;3.28;2.78;;;21.10;99.90;;;;;;4187917;28;20079;-83
2023/08/20 06:23:02;;;;;;;2.38;2.17;;;21.20;99.90;;;;;;4179622;28;20052;-83
2023/08/20 06:25:22;;;;;;;3.10;1.75;;;21.40;99.90;;;;;;4182486;28;20057;-83
2023/08/20 06:27:42;;;;;;;2.78;2.55;;;21.60;99.90;;;;;;4182222;28;20073;-83
2023/08/20 06:30:02;;;;;;;4.00;2.63;;;21.80;99.90;;;;;;4180900;28;20291;-83
2023/08/20 06:32:26;;;;;;;2.92;2.72;;;22.00;99.90;;;;;;4182520;28;20044;-83
2023/08/20 06:34:46;;;;;;;2.88;2.78;;;22.10;99.90;;;;;;4181833;28;20275;-83
2023/08/20 06:37:06;;;;;;;1.92;1.92;;;22.30;99.90;;;;;;4183961;28;20090;-83
2023/08/20 06:39:26;;;;;;;3.03;2.78;;;22.50;99.90;;;;;;4188001;28;20052;-84
2023/08/20 06:41:46;;;;;;;2.38;2.17;;;22.70;99.90;;;;;;4178713;28;20043;-83
2023/08/20 06:44:07;;;;;;;2.17;1.85;;;22.90;99.90;;;;;;4181609;28;20084;-84
2023/08/20 06:46:27;;;;;;;2.25;2.15;;;23.10;99.90;;;;;;4177955;28;20048;-83
2023/08/20 06:48:47;;;;;;;2.30;2.20;;;23.30;99.90;;;;;;4185255;28;20101;-83
2023/08/20 06:51:15;;;;;;;3.60;2.35;;;23.70;99.90;;;;;;4179456;28;20394;-83
2023/08/20 06:53:35;;;;;;;2.63;2.53;;;24.00;99.90;;;;;;4182272;28;20086;-83
2023/08/20 06:55:55;;;;;;;2.63;2.50;;;24.00;99.90;;;;;;4178010;28;20076;-84
2023/08/20 06:58:15;;;;;;;2.17;2.08;;;24.20;99.90;;;;;;4178346;28;20149;-83
2023/08/20 07:00:35;;;;;;;1.92;1.92;;;24.50;99.90;;;;;;4176887;28;20064;-83
2023/08/20 07:02:55;;;;;;;2.30;2.15;;;24.50;99.90;;;;;;4179400;28;20056;-83
2023/08/20 07:05:15;;;;;;;2.40;2.17;;;24.80;99.90;;;;;;4180348;28;20136;-84
2023/08/20 07:07:35;;;;;;;1.92;1.83;;;25.10;99.90;;;;;;4179705;28;20060;-84
2023/08/20 07:09:56;;;;;;;1.75;1.65;;;25.30;99.90;;;;;;4182478;28;20131;-84
2023/08/20 07:12:16;;;;;;;2.38;2.03;;;25.60;99.90;;;;;;4178951;28;20047;-84
2023/08/20 07:14:36;;;;;;;2.63;1.70;;;25.80;99.80;;;;;;4179179;28;20084;-84
2023/08/20 07:16:56;;;;;;;2.17;1.42;;;26.20;99.90;;;;;;4178380;28;20052;-84
2023/08/20 07:19:16;;;;;;;3.28;1.58;;;26.40;99.00;;;;;;4179586;28;20052;-83
2023/08/20 07:21:36;;;;;;;1.88;1.40;;;26.70;98.60;;;;;;4181586;28;20090;-84
2023/08/20 07:23:56;;;;;;;1.52;1.38;;;27.00;98.10;;;;;;4178959;28;20044;-84
2023/08/20 07:26:16;;;;;;;2.05;1.35;;;27.10;97.70;;;;;;4182613;28;20044;-84
2023/08/20 07:31:15;;;;;;;2.80;1.45;;;27.20;97.30;;;;;;4180014;28;20065;-84
2023/08/20 07:33:35;;;;;;;1.13;1.05;;;27.50;97.10;;;;;;4177140;28;20060;-84
2023/08/20 07:35:55;;;;;;;4.20;1.40;;;27.70;97.10;;;;;;4181454;28;20339;-85
2023/08/20 07:38:15;;;;;;;1.23;1.23;;;27.80;97.30;;;;;;4178355;28;20048;-85
2023/08/20 07:40:36;;;;;;;1.30;1.30;;;27.90;97.30;;;;;;4186614;28;20379;-85
2023/08/20 07:42:56;;;;;;;1.27;1.20;;;28.20;96.40;;;;;;4180471;28;20043;-85
2023/08/20 07:45:16;;;;;;;2.45;1.38;;;28.50;96.50;;;;;;4179900;28;20084;-85
2023/08/20 07:47:37;;;;;;;1.60;1.50;;;28.90;95.80;;;;;;4181324;28;20087;-85
2023/08/20 07:49:57;;;;;;;1.20;1.20;;;29.00;95.80;;;;;;4179689;28;20048;-85
2023/08/20 07:52:17;;;;;;;1.42;1.42;;;29.30;95.50;;;;;;4185549;28;20048;-85
2023/08/20 07:54:37;;;;;;;1.95;1.20;;;29.40;95.10;;;;;;4180878;28;20055;-85
2023/08/20 07:56:57;;;;;;;3.63;1.50;;;29.50;94.50;;;;;;4185115;28;20040;-85
2023/08/20 07:59:18;;;;;;;1.70;1.60;;;29.50;94.60;;;;;;4181404;28;20079;-85
2023/08/20 08:01:38;;;;;;;1.95;1.85;;;30.00;93.80;;;;;;4179932;28;20052;-91
2023/08/20 08:03:58;;;;;;;1.45;1.45;;;30.10;93.70;;;;;;4181022;28;20057;-90
2023/08/20 08:06:18;;;;;;;1.40;1.30;;;30.30;93.40;;;;;;4179085;28;20036;-91
2023/08/20 08:08:43;;;;;;;1.15;1.13;;;30.60;92.70;;;;;;4182477;28;20088;-90
2023/08/20 08:11:04;;;;;;;2.97;1.88;;;30.70;92.30;;;;;;4181643;28;20084;-91
2023/08/20 08:13:24;;;;;;;1.35;1.35;;;30.90;92.50;;;;;;4182497;28;20379;-89
2023/08/20 08:15:44;;;;;;;1.25;1.20;;;31.00;91.90;;;;;;4175637;28;20052;-91
2023/08/20 08:18:04;;;;;;;1.45;1.45;;;31.20;92.70;;;;;;4177752;28;20124;-91
2023/08/20 08:20:24;;;;;;;3.47;1.40;;;31.30;92.30;;;;;;4180320;28;20371;-89
2023/08/20 08:22:45;;;;;;;3.28;1.50;;;31.60;90.80;;;;;;4177630;28;20068;-91
2023/08/20 08:25:05;;;;;;;1.80;1.73;;;31.70;90.60;;;;;;4180611;28;20417;-91
2023/08/20 08:27:24;;;;;;;1.98;1.40;;;31.60;88.70;;;;;;4179983;28;20084;-89
2023/08/20 08:29:45;;;;;;;1.15;1.15;;;31.70;90.80;;;;;;4174723;28;20061;-89
2023/08/20 08:32:05;;;;;;;2.50;2.08;;;31.50;89.40;;;;;;4181110;28;20055;-90
2023/08/20 08:34:25;;;;;;;1.42;1.33;;;31.60;87.10;;;;;;4191485;28;20039;-91
2023/08/20 08:36:45;;;;;;;1.88;1.27;;;31.20;87.30;;;;;;4176480;28;20102;-91
2023/08/20 08:39:04;;;;;;;1.50;1.40;;;31.20;87.40;;;;;;4177098;28;20296;-90
2023/08/20 08:41:28;;;;;;;1.50;1.40;;;31.70;88.00;;;;;;4177192;28;20121;-90
2023/08/20 08:43:48;;;;;;;2.97;1.20;;;31.60;85.90;;;;;;4181983;28;20120;-91
2023/08/20 08:46:13;;;;;;;2.00;1.20;;;31.60;87.00;;;;;;4180420;28;20051;-87
2023/08/20 08:48:39;;;;;;;1.40;1.40;;;32.10;84.80;;;;;;4181263;28;20282;-86
2023/08/20 08:51:00;;;;;;;1.67;1.40;;;32.10;85.60;;;;;;4181729;28;20052;-87
2023/08/20 08:53:22;;;;;;;2.42;1.30;;;32.10;86.10;;;;;;4184270;28;20066;-87
2023/08/20 08:55:42;;;;;;;1.42;1.33;;;32.20;84.90;;;;;;4180960;28;20378;-92
2023/08/20 08:58:03;;;;;;;2.45;1.40;;;32.30;84.10;;;;;;4181562;28;20051;-91
2023/08/20 09:00:23;;;;;;;1.40;1.33;;;32.40;84.20;;;;;;4180773;28;20096;-90
2023/08/20 09:02:43;;;;;;;1.30;1.20;;;32.60;83.60;;;;;;4183278;28;20040;-91
2023/08/20 09:05:06;;;;;;;1.10;1.10;;;32.80;81.70;;;;;;4179186;28;20064;-91
2023/08/20 09:07:26;;;;;;;1.55;1.10;;;32.60;79.90;;;;;;4188193;28;20240;-88
2023/08/20 09:09:46;;;;;;;2.03;1.20;;;32.80;82.60;;;;;;4182729;28;20047;-91
2023/08/20 09:12:14;;;;;;;1.10;1.00;;;32.70;82.20;;;;;;4178841;28;20272;-91
2023/08/20 09:14:35;;;;;;;1.25;1.20;;;32.70;82.90;;;;;;4196060;28;20036;-91
2023/08/20 09:17:01;;;;;;;0.98;0.98;;;32.30;83.20;;;;;;4177973;28;20100;-90
2023/08/20 09:19:21;;;;;;;1.30;1.30;;;32.50;82.50;;;;;;4180814;28;20056;-91
2023/08/20 09:21:46;;;;;;;0.90;0.90;;;32.80;84.80;;;;;;4181245;28;20044;-91
2023/08/20 09:24:08;;;;;;;2.25;0.93;;;33.20;83.00;;;;;;4182360;28;20056;-85
2023/08/20 09:26:28;;;;;;;3.58;1.20;;;32.90;80.90;;;;;;4190874;28;20123;-85
2023/08/20 09:28:58;;;;;;;1.08;1.08;;;32.80;82.00;;;;;;4178375;28;20244;-85
2023/08/20 09:31:18;;;;;;;1.00;1.00;;;32.50;80.50;;;;;;4179141;28;20123;-86
2023/08/20 09:33:52;;;;;;;0.98;0.93;;;32.20;82.60;;;;;;4187518;28;20047;-86
2023/08/20 09:36:12;;;;;;;1.27;1.10;;;31.90;81.50;;;;;;4180002;28;20075;-86
2023/08/20 09:38:39;;;;;;;1.20;1.20;;;31.90;82.90;;;;;;4181299;28;20044;-86
2023/08/20 09:41:00;;;;;;;1.00;1.00;;;32.20;86.20;;;;;;4174812;28;20263;-85
2023/08/20 09:43:22;;;;;;;1.20;1.20;;;32.00;81.60;;;;;;4180923;28;20043;-86
2023/08/20 09:45:43;;;;;;;1.10;1.10;;;31.90;83.40;;;;;;4176922;28;20109;-86
2023/08/20 09:48:09;;;;;;;1.02;1.00;;;31.90;81.70;;;;;;4186195;28;20429;-85
2023/08/20 09:50:36;;;;;;;1.08;1.08;;;32.00;82.70;;;;;;4178594;28;20084;-84
2023/08/20 09:53:01;;;;;;;1.77;1.00;;;31.90;82.40;;;;;;4180007;28;20053;-84
2023/08/20 09:55:25;;;;;;;2.35;1.30;;;31.70;81.70;;;;;;4182156;28;20052;-91
2023/08/20 09:57:47;;;;;;;1.00;1.00;;;31.90;82.10;;;;;;4181890;28;20055;-91
2023/08/20 10:00:09;;;;;;;4.78;1.20;;;32.50;82.60;;;;;;4185971;28;20044;-90
2023/08/20 10:02:30;;;;;;;1.20;1.20;;;32.40;81.30;;;;;;4187509;28;20078;-91
2023/08/20 10:04:52;;;;;;;2.53;1.00;;;32.10;79.20;;;;;;4183476;28;20395;-92
2023/08/20 10:07:12;;;;;;;1.58;1.00;;;31.80;79.80;;;;;;4184898;28;20044;-90
2023/08/20 10:09:34;;;;;;;1.33;1.30;;;32.00;81.10;;;;;;4185211;28;20068;-91
2023/08/20 10:11:54;;;;;;;1.10;1.00;;;32.30;81.40;;;;;;4181763;28;20075;-90
2023/08/20 10:14:16;;;;;;;1.02;1.02;;;32.30;79.40;;;;;;4183225;28;20052;-90
2023/08/20 10:16:36;;;;;;;0.93;0.93;;;32.30;78.30;;;;;;4183276;28;20105;-91
2023/08/20 10:19:01;;;;;;;1.10;1.10;;;32.30;79.00;;;;;;4179418;28;20121;-90
2023/08/20 10:21:24;;;;;;;1.10;1.00;;;32.40;80.20;;;;;;4180630;28;20470;-91
2023/08/20 10:23:49;;;;;;;1.88;1.20;;;32.80;78.70;;;;;;4180213;28;20116;-91
2023/08/20 10:26:10;;;;;;;1.00;1.00;;;32.50;77.20;;;;;;4180535;28;20111;-92
2023/08/20 10:28:31;;;;;;;1.20;1.00;;;32.70;78.80;;;;;;4178847;28;20048;-91
2023/08/20 10:31:14;;;;;;;1.35;1.00;;;32.70;77.30;;;;;;4182227;28;20347;-90
2023/08/20 10:33:36;;;;;;;0.90;0.90;;;33.00;79.10;;;;;;4184357;28;20312;-92
2023/08/20 10:35:56;;;;;;;1.10;1.00;;;32.60;76.60;;;;;;4180680;28;20060;-92
2023/08/20 10:38:17;;;;;;;1.38;0.90;;;32.30;77.40;;;;;;4184601;28;20052;-91
2023/08/20 10:40:58;;;;;;;1.00;1.00;;;32.50;77.70;;;;;;4180419;28;20111;-91
2023/08/20 10:43:27;;;;;;;0.90;0.90;;;32.60;77.60;;;;;;4180475;28;20040;-90
2023/08/20 10:46:05;;;;;;;0.95;0.95;;;32.40;76.30;;;;;;4183113;28;20036;-91
2023/08/20 10:48:30;;;;;;;0.90;0.90;;;32.20;78.70;;;;;;4186715;28;20075;-91
2023/08/20 10:50:50;;;;;;;1.63;0.90;;;32.40;77.80;;;;;;4183671;28;20113;-91
2023/08/20 10:53:12;;;;;;;2.28;1.25;;;32.90;78.50;;;;;;4184814;28;20417;-91
2023/08/20 10:55:31;;;;;;;0.82;0.82;;;33.10;78.20;;;;;;4179058;28;20049;-90
2023/08/20 10:57:56;;;;;;;2.10;0.80;;;32.70;76.50;;;;;;4179064;28;20064;-91
2023/08/20 11:00:16;;;;;;;1.00;1.00;;;32.60;78.10;;;;;;4181330;28;20087;-91
2023/08/20 11:02:42;;;;;;;0.90;0.90;;;32.80;78.40;;;;;;4180004;28;20247;-91
2023/08/20 11:05:04;;;;;;;0.90;0.90;;;32.40;77.10;;;;;;4181983;28;20095;-86
2023/08/20 11:07:27;;;;;;;1.02;0.90;;;32.40;78.70;;;;;;4175278;28;20043;-85
2023/08/20 11:09:50;;;;;;;0.90;0.90;;;32.60;77.10;;;;;;4184377;28;20044;-86
2023/08/20 11:12:10;;;;;;;2.90;1.00;;;32.60;78.80;;;;;;4179677;28;20062;-85
2023/08/20 11:14:31;;;;;;;1.00;1.00;;;32.70;79.90;;;;;;4184617;28;20045;-86
2023/08/20 11:16:51;;;;;;;1.03;0.90;;;32.70;79.30;;;;;;4186678;28;20122;-86
2023/08/20 11:19:19;;;;;;;1.83;0.93;;;33.20;79.30;;;;;;4180938;28;20325;-85
2023/08/20 11:21:43;;;;;;;0.90;0.90;;;33.10;80.40;;;;;;4184266;28;20243;-86
2023/08/20 11:24:05;;;;;;;3.55;0.80;;;33.20;77.10;;;;;;4185245;28;20040;-87
2023/08/20 11:26:24;;;;;;;1.75;0.80;;;32.80;77.80;;;;;;4180620;28;20048;-87
2023/08/20 11:28:47;;;;;;;1.00;1.00;;;32.80;76.90;;;;;;4178339;28;20056;-87
2023/08/20 11:31:08;;;;;;;0.85;0.85;;;32.70;77.70;;;;;;4182364;28;20390;-87
2023/08/20 11:33:29;;;;;;;1.33;0.90;;;32.70;77.70;;;;;;4178469;28;20087;-87
2023/08/20 11:35:51;;;;;;;1.30;1.03;;;32.60;79.10;;;;;;4176808;28;20044;-87
2023/08/20 11:38:11;;;;;;;1.00;1.00;;;32.90;77.80;;;;;;4180704;28;20362;-87
2023/08/20 11:40:30;;;;;;;0.80;0.80;;;32.50;77.40;;;;;;4175496;28;20048;-87
2023/08/20 11:42:51;;;;;;;1.25;1.00;;;32.60;78.20;;;;;;4180057;28;20048;-87
2023/08/20 11:45:11;;;;;;;1.38;0.90;;;32.80;78.00;;;;;;4180315;28;20248;-86
2023/08/20 11:47:39;;;;;;;0.90;0.90;;;33.20;77.90;;;;;;4181055;28;20045;-87
2023/08/20 11:50:04;;;;;;;1.10;1.02;;;33.20;77.30;;;;;;4180353;28;20144;-87
2023/08/20 11:52:24;;;;;;;0.90;0.90;;;33.00;75.40;;;;;;4179162;28;20076;-87
2023/08/20 11:54:44;;;;;;;1.25;1.00;;;32.60;76.80;;;;;;4177483;28;20084;-87
2023/08/20 11:57:06;;;;;;;1.45;1.20;;;32.50;77.20;;;;;;4179650;28;20309;-87
2023/08/20 11:59:26;;;;;;;1.85;1.00;;;32.50;77.00;;;;;;4181175;28;20051;-87
2023/08/20 12:01:56;;;;;;;1.75;1.05;;;32.80;76.30;;;;;;4178887;28;20055;-87
2023/08/20 12:04:16;;;;;;;1.00;1.00;;;32.90;76.40;;;;;;4190143;28;20040;-87
2023/08/20 12:06:38;;;;;;;2.60;0.90;;;33.00;78.50;;;;;;4178235;28;20093;-87
2023/08/20 12:08:58;;;;;;;2.90;0.90;;;32.90;76.80;;;;;;4180077;28;20041;-87
2023/08/20 12:11:18;;;;;;;3.58;0.90;;;32.90;77.40;;;;;;4178622;28;20049;-87
2023/08/20 12:13:38;;;;;;;2.35;1.00;;;32.80;77.30;;;;;;4180933;28;20124;-87
2023/08/20 12:15:58;;;;;;;1.02;0.90;;;32.70;79.20;;;;;;4182132;28;20040;-87
2023/08/20 12:18:20;;;;;;;2.67;0.90;;;32.90;77.60;;;;;;4182900;28;20052;-87
2023/08/20 12:20:41;;;;;;;1.02;0.90;;;33.00;78.10;;;;;;4185489;28;20424;-87